Time;durP1;ratioP1;P1;durP2;ratioP2;P2;SDS_P1;SDS_P2;PMS_P1;PMS_P2;Temp;Humidity;BMP_temperature;BMP_pressure;BME280_temperature;BME280_humidity;BME280_pressure;Samples;Min_cycle;Max_cycle;Signal;HPM_P1;HPM_P2
2023/05/20 00:01:57;;;;;;;3.22;1.65;;;;;;;;;;5021015;28;20041;-75
2023/05/20 00:04:23;;;;;;;9.80;1.70;;;;;;;;;;5036571;28;20108;-75
2023/05/20 00:06:48;;;;;;;2.00;1.40;;;;;;;;;;5019763;28;20076;-75
2023/05/20 00:09:15;;;;;;;1.88;1.40;;;;;;;;;;5054107;28;20033;-75
2023/05/20 00:11:41;;;;;;;2.17;1.50;;;;;;;;;;5054200;28;20029;-75
2023/05/20 00:14:06;;;;;;;4.07;1.50;;;;;;;;;;5036817;28;20025;-75
2023/05/20 00:16:32;;;;;;;3.80;1.60;;;;;;;;;;5036334;28;20100;-75
2023/05/20 00:18:57;;;;;;;3.20;1.50;;;;;;;;;;5054103;28;20051;-75
2023/05/20 00:21:22;;;;;;;2.17;1.35;;;;;;;;;;5036025;28;20028;-75
2023/05/20 00:23:48;;;;;;;2.70;1.50;;;;;;;;;;5053836;28;20025;-75
2023/05/20 00:26:13;;;;;;;2.88;1.70;;;;;;;;;;5036203;28;20488;-75
2023/05/20 00:28:38;;;;;;;2.25;1.42;;;;;;;;;;5036014;28;20472;-75
2023/05/20 00:31:04;;;;;;;1.45;1.15;;;;;;;;;;5054205;28;20115;-75
2023/05/20 00:33:29;;;;;;;2.97;1.58;;;;;;;;;;5053913;28;20392;-75
2023/05/20 00:35:55;;;;;;;2.92;1.33;;;;;;;;;;5035908;28;20108;-75
2023/05/20 00:38:20;;;;;;;2.80;1.65;;;;;;;;;;5019744;28;20052;-75
2023/05/20 00:40:46;;;;;;;2.47;1.40;;;;;;;;;;5035789;28;20035;-75
2023/05/20 00:43:11;;;;;;;3.83;1.42;;;;;;;;;;5035917;28;20116;-75
2023/05/20 00:45:37;;;;;;;2.20;1.35;;;;;;;;;;5035932;28;20079;-76
2023/05/20 00:48:02;;;;;;;2.25;1.35;;;;;;;;;;5019144;28;20400;-75
2023/05/20 00:50:28;;;;;;;2.75;1.67;;;;;;;;;;5035764;28;20204;-75
2023/05/20 00:52:54;;;;;;;2.35;1.55;;;;;;;;;;5053695;28;20061;-75
2023/05/20 00:55:20;;;;;;;1.77;1.42;;;;;;;;;;5053434;28;20510;-75
2023/05/20 00:57:47;;;;;;;1.80;1.42;;;;;;;;;;5019012;28;20029;-75
2023/05/20 01:00:13;;;;;;;2.03;1.30;;;;;;;;;;5053502;28;20472;-75
2023/05/20 01:02:38;;;;;;;3.90;1.65;;;;;;;;;;5019428;28;20041;-75
2023/05/20 01:05:04;;;;;;;3.17;1.60;;;;;;;;;;5035344;28;20086;-75
2023/05/20 01:07:30;;;;;;;3.03;1.60;;;;;;;;;;5019158;28;20039;-75
2023/05/20 01:09:55;;;;;;;2.33;1.45;;;;;;;;;;5052337;28;20452;-75
2023/05/20 01:12:43;;;;;;;3.22;1.63;;;;;;;;;;5018954;28;20033;-75
2023/05/20 01:15:14;;;;;;;1.35;1.25;;;;;;;;;;5035623;28;20506;-75
2023/05/20 01:17:45;;;;;;;2.17;1.40;;;;;;;;;;5018872;28;20033;-75
2023/05/20 01:20:13;;;;;;;2.97;1.60;;;;;;;;;;5035247;28;20455;-75
2023/05/20 01:22:46;;;;;;;1.88;1.40;;;;;;;;;;5035894;28;20048;-75
2023/05/20 01:25:11;;;;;;;2.42;1.52;;;;;;;;;;5053174;28;20068;-75
2023/05/20 01:27:37;;;;;;;5.05;2.15;;;;;;;;;;5035218;28;20036;-75
2023/05/20 01:30:02;;;;;;;2.70;1.60;;;;;;;;;;5052076;28;20521;-75
2023/05/20 01:32:34;;;;;;;1.67;1.50;;;;;;;;;;5045612;28;20028;-75
2023/05/20 01:34:59;;;;;;;1.40;1.30;;;;;;;;;;5035185;28;20070;-75
2023/05/20 01:37:26;;;;;;;2.13;1.30;;;;;;;;;;5052938;28;20425;-75
2023/05/20 01:39:52;;;;;;;2.17;1.40;;;;;;;;;;5035104;28;20029;-75
2023/05/20 01:42:18;;;;;;;2.00;1.40;;;;;;;;;;5018702;28;20029;-75
2023/05/20 01:44:43;;;;;;;2.60;1.52;;;;;;;;;;5037231;28;20433;-75
2023/05/20 01:47:09;;;;;;;3.67;1.58;;;;;;;;;;5035273;28;20553;-75
2023/05/20 01:49:35;;;;;;;2.58;1.60;;;;;;;;;;5034950;28;20108;-75
2023/05/20 01:52:00;;;;;;;1.90;1.38;;;;;;;;;;5018515;28;20116;-76
2023/05/20 01:54:25;;;;;;;4.30;1.40;;;;;;;;;;5035260;28;20382;-76
2023/05/20 01:56:51;;;;;;;4.28;1.42;;;;;;;;;;5018779;28;20029;-76
2023/05/20 01:59:16;;;;;;;1.95;1.50;;;;;;;;;;5034915;28;20519;-76
2023/05/20 02:01:42;;;;;;;2.53;1.23;;;;;;;;;;5018538;28;20041;-75
2023/05/20 02:04:08;;;;;;;2.42;1.63;;;;;;;;;;5034826;28;20104;-74
2023/05/20 02:06:33;;;;;;;1.92;1.40;;;;;;;;;;5034971;28;20060;-76
2023/05/20 02:08:58;;;;;;;1.65;1.20;;;;;;;;;;5034820;28;20040;-76
2023/05/20 02:11:24;;;;;;;2.45;1.48;;;;;;;;;;5001989;28;20036;-76
2023/05/20 02:13:50;;;;;;;1.98;1.40;;;;;;;;;;5034722;28;20074;-76
2023/05/20 02:16:15;;;;;;;5.15;1.60;;;;;;;;;;5018239;28;20025;-76
2023/05/20 02:18:41;;;;;;;2.03;1.58;;;;;;;;;;5034907;28;20369;-76
2023/05/20 02:21:06;;;;;;;3.50;1.40;;;;;;;;;;5054445;28;20059;-76
2023/05/20 02:23:32;;;;;;;2.30;1.60;;;;;;;;;;5038254;28;20024;-76
2023/05/20 02:25:57;;;;;;;4.18;1.58;;;;;;;;;;5055971;28;20035;-76
2023/05/20 02:28:23;;;;;;;2.38;1.40;;;;;;;;;;5038025;28;20032;-76
2023/05/20 02:30:51;;;;;;;2.83;1.30;;;;;;;;;;5022159;28;20128;-76
2023/05/20 02:33:20;;;;;;;4.15;1.50;;;;;;;;;;5055923;28;20052;-76
2023/05/20 02:35:46;;;;;;;2.45;1.50;;;;;;;;;;5056148;28;20534;-76
2023/05/20 02:38:11;;;;;;;3.92;1.48;;;;;;;;;;5038127;28;20060;-76
2023/05/20 02:40:37;;;;;;;4.25;1.63;;;;;;;;;;5038158;28;20044;-76
2023/05/20 02:43:02;;;;;;;2.97;1.58;;;;;;;;;;5037858;28;20029;-76
2023/05/20 02:45:28;;;;;;;1.90;1.20;;;;;;;;;;5037824;28;20029;-76
2023/05/20 02:47:53;;;;;;;3.03;1.50;;;;;;;;;;5055617;28;20032;-76
2023/05/20 02:50:19;;;;;;;1.77;1.30;;;;;;;;;;5055907;28;20472;-76
2023/05/20 02:52:45;;;;;;;3.10;1.48;;;;;;;;;;5021205;28;20031;-76
2023/05/20 02:55:10;;;;;;;2.33;1.50;;;;;;;;;;5037785;28;20096;-76
2023/05/20 02:57:39;;;;;;;4.05;1.42;;;;;;;;;;5037670;28;20357;-76
2023/05/20 03:00:06;;;;;;;2.22;1.40;;;;;;;;;;5037916;28;20439;-77
2023/05/20 03:02:33;;;;;;;2.88;1.48;;;;;;;;;;5037716;28;20507;-76
2023/05/20 03:04:58;;;;;;;2.97;1.38;;;;;;;;;;5037721;28;20068;-76
2023/05/20 03:07:24;;;;;;;2.22;1.25;;;;;;;;;;5021083;28;20052;-76
2023/05/20 03:09:49;;;;;;;2.38;1.30;;;;;;;;;;5020960;28;20167;-76
2023/05/20 03:12:15;;;;;;;1.98;1.33;;;;;;;;;;5055897;28;20381;-76
2023/05/20 03:14:40;;;;;;;3.05;1.65;;;;;;;;;;5055736;28;20116;-76
2023/05/20 03:17:06;;;;;;;2.22;1.52;;;;;;;;;;5037188;28;20029;-76
2023/05/20 03:19:31;;;;;;;4.10;1.40;;;;;;;;;;5055101;28;20033;-76
2023/05/20 03:21:56;;;;;;;3.20;1.50;;;;;;;;;;5054873;28;20033;-76
2023/05/20 03:24:22;;;;;;;2.22;1.35;;;;;;;;;;5037232;28;20025;-77
2023/05/20 03:26:48;;;;;;;1.50;1.40;;;;;;;;;;5004171;28;20029;-76
2023/05/20 03:29:13;;;;;;;1.63;1.30;;;;;;;;;;5037036;28;20021;-76
2023/05/20 03:31:39;;;;;;;2.83;1.73;;;;;;;;;;5054510;28;20036;-76
2023/05/20 03:34:05;;;;;;;2.75;1.35;;;;;;;;;;5036466;28;20029;-76
2023/05/20 03:36:30;;;;;;;1.60;1.50;;;;;;;;;;5037240;28;20070;-76
2023/05/20 03:38:56;;;;;;;2.63;1.42;;;;;;;;;;5055020;28;20044;-76
2023/05/20 03:41:21;;;;;;;2.70;1.60;;;;;;;;;;5003982;28;20093;-76
2023/05/20 03:43:47;;;;;;;2.60;1.38;;;;;;;;;;5036831;28;20037;-76
2023/05/20 03:46:12;;;;;;;1.55;1.27;;;;;;;;;;5020094;28;20032;-76
2023/05/20 03:48:38;;;;;;;1.75;1.25;;;;;;;;;;5036696;28;20484;-75
2023/05/20 03:51:03;;;;;;;1.55;1.40;;;;;;;;;;5036476;28;20033;-76
2023/05/20 03:53:29;;;;;;;3.03;1.60;;;;;;;;;;5003717;28;20044;-76
2023/05/20 03:55:54;;;;;;;1.88;1.58;;;;;;;;;;5054214;28;20025;-75
2023/05/20 03:58:21;;;;;;;1.30;1.20;;;;;;;;;;5036685;28;20041;-75
2023/05/20 04:00:46;;;;;;;5.50;1.52;;;;;;;;;;5032980;28;20137;-75
2023/05/20 04:03:12;;;;;;;1.63;1.23;;;;;;;;;;5035427;28;20112;-75
2023/05/20 04:05:37;;;;;;;1.85;1.30;;;;;;;;;;5036383;28;20021;-75
2023/05/20 04:08:03;;;;;;;1.52;1.40;;;;;;;;;;5003596;28;20021;-75
2023/05/20 04:10:31;;;;;;;1.67;1.40;;;;;;;;;;5054152;28;20507;-75
2023/05/20 04:12:57;;;;;;;4.30;1.73;;;;;;;;;;5036846;28;20033;-76
2023/05/20 04:15:22;;;;;;;1.95;1.40;;;;;;;;;;5037026;28;20036;-75
2023/05/20 04:17:49;;;;;;;1.48;1.38;;;;;;;;;;5036670;28;20035;-75
2023/05/20 04:20:14;;;;;;;2.25;1.20;;;;;;;;;;5037131;28;20549;-75
2023/05/20 04:22:40;;;;;;;2.60;1.45;;;;;;;;;;5041870;28;20036;-75
2023/05/20 04:25:06;;;;;;;2.45;1.50;;;;;;;;;;5036471;28;20029;-76
2023/05/20 04:27:36;;;;;;;2.47;1.27;;;;;;;;;;5020213;28;20056;-76
2023/05/20 04:30:03;;;;;;;1.23;1.10;;;;;;;;;;5036092;28;20059;-76
2023/05/20 04:32:29;;;;;;;3.08;1.50;;;;;;;;;;5025593;28;20033;-76
2023/05/20 04:34:54;;;;;;;3.97;1.40;;;;;;;;;;5032646;28;20037;-75
2023/05/20 04:37:24;;;;;;;2.00;1.40;;;;;;;;;;5019489;28;20029;-75
2023/05/20 04:39:49;;;;;;;1.40;1.30;;;;;;;;;;5052533;28;20029;-75
2023/05/20 04:42:17;;;;;;;3.60;1.40;;;;;;;;;;5035829;28;20462;-75
2023/05/20 04:44:44;;;;;;;1.40;1.27;;;;;;;;;;5036684;28;20031;-75
2023/05/20 04:47:10;;;;;;;2.00;1.48;;;;;;;;;;5036386;28;20033;-75
2023/05/20 04:49:36;;;;;;;1.70;1.25;;;;;;;;;;5036257;28;20036;-75
2023/05/20 04:52:03;;;;;;;1.70;1.50;;;;;;;;;;5036446;28;20029;-75
2023/05/20 04:54:29;;;;;;;1.25;1.15;;;;;;;;;;5019491;28;20110;-76
2023/05/20 04:56:55;;;;;;;4.28;1.30;;;;;;;;;;5036104;28;20021;-76
2023/05/20 04:59:20;;;;;;;2.47;1.50;;;;;;;;;;5035674;28;20132;-76
2023/05/20 05:01:46;;;;;;;1.65;1.33;;;;;;;;;;5035719;28;20043;-76
2023/05/20 05:04:11;;;;;;;1.42;1.33;;;;;;;;;;5035663;28;20025;-76
2023/05/20 05:06:37;;;;;;;2.28;1.40;;;;;;;;;;5035403;28;20575;-76
2023/05/20 05:09:02;;;;;;;4.55;1.58;;;;;;;;;;5053690;28;20070;-76
2023/05/20 05:11:27;;;;;;;1.45;1.20;;;;;;;;;;5035520;28;20060;-76
2023/05/20 05:13:54;;;;;;;1.90;1.20;;;;;;;;;;5019551;28;20047;-76
2023/05/20 05:16:19;;;;;;;1.75;1.35;;;;;;;;;;5036266;28;20582;-76
2023/05/20 05:18:45;;;;;;;2.70;1.20;;;;;;;;;;5019331;28;20112;-76
2023/05/20 05:21:10;;;;;;;2.58;1.30;;;;;;;;;;5035786;28;20039;-76
2023/05/20 05:23:35;;;;;;;2.75;1.50;;;;;;;;;;5053995;28;20029;-76
2023/05/20 05:26:01;;;;;;;2.45;1.25;;;;;;;;;;5053536;28;20028;-76
2023/05/20 05:28:26;;;;;;;7.97;1.48;;;;;;;;;;5055323;28;20029;-76
2023/05/20 05:30:54;;;;;;;2.90;1.20;;;;;;;;;;5053897;28;20383;-76
2023/05/20 05:33:19;;;;;;;4.70;1.40;;;;;;;;;;5035856;28;20100;-78
2023/05/20 05:35:45;;;;;;;1.63;1.38;;;;;;;;;;5036157;28;20025;-75
2023/05/20 05:38:10;;;;;;;3.67;1.60;;;;;;;;;;5054146;28;20356;-75
2023/05/20 05:40:36;;;;;;;3.63;1.60;;;;;;;;;;5019529;28;20040;-76
2023/05/20 05:43:01;;;;;;;4.35;1.70;;;;;;;;;;5002130;28;20032;-75
2023/05/20 05:45:27;;;;;;;3.17;1.55;;;;;;;;;;5035692;28;20029;-78
2023/05/20 05:47:53;;;;;;;9.10;2.22;;;;;;;;;;5035506;28;20156;-77
2023/05/20 05:50:18;;;;;;;8.23;2.88;;;;;;;;;;5053057;28;20036;-76
2023/05/20 05:52:44;;;;;;;10.13;2.50;;;;;;;;;;5035598;28;20025;-76
2023/05/20 05:55:10;;;;;;;4.10;2.17;;;;;;;;;;5035660;28;20327;-77
2023/05/20 05:57:35;;;;;;;4.57;2.17;;;;;;;;;;5056380;28;20210;-76
2023/05/20 06:00:01;;;;;;;6.28;2.38;;;;;;;;;;5037784;28;20052;-76
2023/05/20 06:02:26;;;;;;;4.63;2.13;;;;;;;;;;5027893;28;20038;-76
2023/05/20 06:04:51;;;;;;;5.15;2.40;;;;;;;;;;5035289;28;20084;-75
2023/05/20 06:07:17;;;;;;;8.25;2.30;;;;;;;;;;5037884;28;20471;-76
2023/05/20 06:09:43;;;;;;;5.22;2.13;;;;;;;;;;5022205;28;20036;-75
2023/05/20 06:12:08;;;;;;;3.63;2.00;;;;;;;;;;5038589;28;20098;-76
2023/05/20 06:14:34;;;;;;;12.10;2.33;;;;;;;;;;5038352;28;20082;-76
2023/05/20 06:17:01;;;;;;;5.80;2.17;;;;;;;;;;5057037;28;20444;-75
2023/05/20 06:19:26;;;;;;;6.68;2.25;;;;;;;;;;5038513;28;20025;-75
2023/05/20 06:21:52;;;;;;;4.45;2.53;;;;;;;;;;5038517;28;20031;-76
2023/05/20 06:24:17;;;;;;;4.30;2.20;;;;;;;;;;5022490;28;20365;-76
2023/05/20 06:26:44;;;;;;;3.85;2.30;;;;;;;;;;5056610;28;20029;-76
2023/05/20 06:29:10;;;;;;;4.00;2.30;;;;;;;;;;5039031;28;20577;-76
2023/05/20 06:31:35;;;;;;;4.07;2.05;;;;;;;;;;5038712;28;20040;-76
2023/05/20 06:34:01;;;;;;;8.43;2.08;;;;;;;;;;5056620;28;20053;-76
2023/05/20 06:36:27;;;;;;;5.55;2.20;;;;;;;;;;5038949;28;20428;-76
2023/05/20 06:38:52;;;;;;;7.85;2.17;;;;;;;;;;5056804;28;20025;-76
2023/05/20 06:41:18;;;;;;;3.78;2.22;;;;;;;;;;5039366;28;20446;-76
2023/05/20 06:43:43;;;;;;;7.82;2.22;;;;;;;;;;5040029;28;20059;-76
2023/05/20 06:46:09;;;;;;;5.72;1.98;;;;;;;;;;5040331;28;20040;-76
2023/05/20 06:48:34;;;;;;;2.78;1.80;;;;;;;;;;5039678;28;20025;-74
2023/05/20 06:51:00;;;;;;;3.88;1.80;;;;;;;;;;5057966;28;20395;-76
2023/05/20 06:53:25;;;;;;;4.47;2.20;;;;;;;;;;5056480;28;20029;-75
2023/05/20 06:55:54;;;;;;;5.03;2.00;;;;;;;;;;5038952;28;20483;-78
2023/05/20 06:58:20;;;;;;;4.75;2.08;;;;;;;;;;5038574;28;20029;-78
2023/05/20 07:00:46;;;;;;;17.15;3.75;;;;;;;;;;5021617;28;20067;-77
2023/05/20 07:03:11;;;;;;;10.18;3.65;;;;;;;;;;5037333;28;20103;-77
2023/05/20 07:05:36;;;;;;;10.88;3.70;;;;;;;;;;5037322;28;20477;-76
2023/05/20 07:08:02;;;;;;;12.02;3.25;;;;;;;;;;5036022;28;20048;-77
2023/05/20 07:10:28;;;;;;;10.65;3.22;;;;;;;;;;5036792;28;20108;-77
2023/05/20 07:12:54;;;;;;;9.02;2.78;;;;;;;;;;5055125;28;20037;-77
2023/05/20 07:15:20;;;;;;;8.43;3.05;;;;;;;;;;5037516;28;20024;-77
2023/05/20 07:17:45;;;;;;;6.63;2.63;;;;;;;;;;5004570;28;20029;-78
2023/05/20 07:20:11;;;;;;;7.80;2.78;;;;;;;;;;5036949;28;20040;-76
2023/05/20 07:22:36;;;;;;;7.10;2.90;;;;;;;;;;5021106;28;20052;-77
2023/05/20 07:25:02;;;;;;;6.25;2.53;;;;;;;;;;5037632;28;20029;-78
2023/05/20 07:27:27;;;;;;;7.63;2.78;;;;;;;;;;5023089;28;20033;-78
2023/05/20 07:29:53;;;;;;;8.60;2.55;;;;;;;;;;5055079;28;20029;-79
2023/05/20 07:32:18;;;;;;;6.65;2.53;;;;;;;;;;5038182;28;20043;-78
2023/05/20 07:34:44;;;;;;;6.10;2.55;;;;;;;;;;5037198;28;20037;-78
2023/05/20 07:37:11;;;;;;;3.42;2.05;;;;;;;;;;5020939;28;20029;-81
2023/05/20 07:39:37;;;;;;;11.13;2.65;;;;;;;;;;5022472;28;20048;-79
2023/05/20 07:42:02;;;;;;;26.55;5.78;;;;;;;;;;5004581;28;20029;-79
2023/05/20 07:44:28;;;;;;;16.15;4.70;;;;;;;;;;5036540;28;20036;-78
2023/05/20 07:46:54;;;;;;;16.30;5.00;;;;;;;;;;5037304;28;20036;-78
2023/05/20 07:49:20;;;;;;;20.15;4.00;;;;;;;;;;5020230;28;20072;-79
2023/05/20 07:51:46;;;;;;;18.13;4.07;;;;;;;;;;5036222;28;20068;-79
2023/05/20 07:54:11;;;;;;;13.32;3.83;;;;;;;;;;5053964;28;20025;-78
2023/05/20 07:56:37;;;;;;;14.65;4.18;;;;;;;;;;5054161;28;20396;-79
2023/05/20 07:59:02;;;;;;;9.57;3.22;;;;;;;;;;5035728;28;20123;-78
2023/05/20 08:01:28;;;;;;;8.88;3.15;;;;;;;;;;5035881;28;20033;-78
2023/05/20 08:03:54;;;;;;;13.80;3.47;;;;;;;;;;5019260;28;20403;-78
2023/05/20 08:06:20;;;;;;;12.27;3.05;;;;;;;;;;5053646;28;20031;-79
2023/05/20 08:08:46;;;;;;;10.60;2.78;;;;;;;;;;5035833;28;20095;-78
2023/05/20 08:11:11;;;;;;;8.45;2.72;;;;;;;;;;5019107;28;20029;-78
2023/05/20 08:13:37;;;;;;;5.95;2.15;;;;;;;;;;5019105;28;20037;-80
2023/05/20 08:16:04;;;;;;;12.35;3.45;;;;;;;;;;5018776;28;20028;-78
2023/05/20 08:18:31;;;;;;;12.90;2.97;;;;;;;;;;5019337;28;20112;-78
2023/05/20 08:20:57;;;;;;;11.93;3.00;;;;;;;;;;5035978;28;20072;-79
2023/05/20 08:23:23;;;;;;;11.27;2.80;;;;;;;;;;5035889;28;20021;-80
2023/05/20 08:25:48;;;;;;;7.25;2.60;;;;;;;;;;5053657;28;20036;-78
2023/05/20 08:28:14;;;;;;;11.30;2.63;;;;;;;;;;5053005;28;20107;-78
2023/05/20 08:30:40;;;;;;;10.52;2.47;;;;;;;;;;5034938;28;20063;-78
2023/05/20 08:33:06;;;;;;;6.15;2.47;;;;;;;;;;5035138;28;20035;-78
2023/05/20 08:35:31;;;;;;;8.75;2.40;;;;;;;;;;5036912;28;20029;-78
2023/05/20 08:37:57;;;;;;;12.50;2.40;;;;;;;;;;5035271;28;20030;-78
2023/05/20 08:40:22;;;;;;;6.18;2.33;;;;;;;;;;5035732;28;20025;-77
2023/05/20 08:42:51;;;;;;;15.68;5.07;;;;;;;;;;5018061;28;20033;-78
2023/05/20 08:45:18;;;;;;;12.40;4.80;;;;;;;;;;5034865;28;20017;-78
2023/05/20 08:47:44;;;;;;;14.23;4.07;;;;;;;;;;5035353;28;20082;-79
2023/05/20 08:50:11;;;;;;;15.60;3.90;;;;;;;;;;5034969;28;20495;-79
2023/05/20 08:52:42;;;;;;;9.38;3.05;;;;;;;;;;5018590;28;20031;-79
2023/05/20 08:55:08;;;;;;;12.52;3.45;;;;;;;;;;5034927;28;20479;-77
2023/05/20 08:57:35;;;;;;;10.18;3.22;;;;;;;;;;5034464;28;20025;-76
2023/05/20 09:00:08;;;;;;;7.07;2.70;;;;;;;;;;5034315;28;20056;-77
2023/05/20 09:02:36;;;;;;;5.50;2.20;;;;;;;;;;5018920;28;20040;-77
2023/05/20 09:05:03;;;;;;;6.32;2.28;;;;;;;;;;5052132;28;20025;-77
2023/05/20 09:07:29;;;;;;;5.82;2.05;;;;;;;;;;5034627;28;20130;-77
2023/05/20 09:09:55;;;;;;;4.90;1.90;;;;;;;;;;5034359;28;20021;-77
2023/05/20 09:12:20;;;;;;;3.22;2.03;;;;;;;;;;5001665;28;20437;-77
2023/05/20 09:14:46;;;;;;;4.82;1.60;;;;;;;;;;5034527;28;20032;-78
2023/05/20 09:17:12;;;;;;;3.92;1.85;;;;;;;;;;5032585;28;20040;-78
2023/05/20 09:19:38;;;;;;;3.10;1.70;;;;;;;;;;5052156;28;20499;-77
2023/05/20 09:22:04;;;;;;;3.15;1.80;;;;;;;;;;5053340;28;20029;-76
2023/05/20 09:24:29;;;;;;;6.53;1.88;;;;;;;;;;5035501;28;20029;-77
2023/05/20 09:26:56;;;;;;;2.72;1.50;;;;;;;;;;5045758;28;20088;-76
2023/05/20 09:29:22;;;;;;;12.07;2.45;;;;;;;;;;5039548;28;20029;-76
2023/05/20 09:31:48;;;;;;;10.18;3.05;;;;;;;;;;5056746;28;20095;-79
2023/05/20 09:34:15;;;;;;;13.07;3.00;;;;;;;;;;5055549;28;20029;-77
2023/05/20 09:36:42;;;;;;;11.75;2.70;;;;;;;;;;5057636;28;20175;-77
2023/05/20 09:39:12;;;;;;;113.55;17.30;;;;;;;;;;5041853;28;20092;-79
2023/05/20 09:42:03;;;;;;;66.90;13.18;;;;;;;;;;5058495;28;20052;-78
2023/05/20 09:44:29;;;;;;;48.85;8.07;;;;;;;;;;5048241;28;20063;-76
2023/05/20 09:46:55;;;;;;;36.45;7.35;;;;;;;;;;5055474;28;20025;-77
2023/05/20 09:49:22;;;;;;;37.08;7.22;;;;;;;;;;5056790;28;20480;-77
2023/05/20 09:51:48;;;;;;;29.05;6.18;;;;;;;;;;5055896;28;20041;-78
2023/05/20 09:54:14;;;;;;;26.77;6.03;;;;;;;;;;5038700;28;20024;-78
2023/05/20 09:56:41;;;;;;;22.63;5.30;;;;;;;;;;5055045;28;20171;-78
2023/05/20 09:59:06;;;;;;;13.23;3.95;;;;;;;;;;5057239;28;20112;-77
2023/05/20 10:01:32;;;;;;;12.25;4.05;;;;;;;;;;5040921;28;20545;-77
2023/05/20 10:03:58;;;;;;;11.95;3.70;;;;;;;;;;5033409;28;20124;-77
2023/05/20 10:06:54;;;;;;;17.10;3.45;;;;;;;;;;5038244;28;20075;-77
2023/05/20 10:09:50;;;;;;;10.27;3.10;;;;;;;;;;5019184;28;20116;-77
2023/05/20 10:12:27;;;;;;;9.60;2.70;;;;;;;;;;5034814;28;20431;-77
2023/05/20 10:15:30;;;;;;;10.32;3.40;;;;;;;;;;5036097;28;20119;-78
2023/05/20 10:18:14;;;;;;;6.03;2.10;;;;;;;;;;5072252;28;20032;-79
2023/05/20 10:20:46;;;;;;;3.75;1.88;;;;;;;;;;5061421;28;20021;-78
2023/05/20 10:23:28;;;;;;;4.40;1.95;;;;;;;;;;5075257;28;20104;-78
2023/05/20 10:25:55;;;;;;;4.88;1.58;;;;;;;;;;5049544;28;20487;-78
2023/05/20 10:28:28;;;;;;;4.43;1.75;;;;;;;;;;5040741;28;20391;-78
2023/05/20 10:30:53;;;;;;;4.00;2.00;;;;;;;;;;5057456;28;20028;-79
2023/05/20 10:33:19;;;;;;;6.90;1.65;;;;;;;;;;5057215;28;20024;-78
2023/05/20 10:35:51;;;;;;;5.50;1.58;;;;;;;;;;5058100;28;20394;-78
2023/05/20 10:38:17;;;;;;;3.05;1.60;;;;;;;;;;5042616;28;20063;-78
2023/05/20 10:40:42;;;;;;;2.72;1.90;;;;;;;;;;5037665;28;20033;-78
2023/05/20 10:43:16;;;;;;;2.80;1.60;;;;;;;;;;5020979;28;20021;-78
2023/05/20 10:45:51;;;;;;;4.43;1.48;;;;;;;;;;5037236;28;20052;-77
2023/05/20 10:48:24;;;;;;;4.00;1.40;;;;;;;;;;5020926;28;20043;-78
2023/05/20 10:50:53;;;;;;;2.88;1.30;;;;;;;;;;5037684;28;20025;-77
2023/05/20 10:53:22;;;;;;;4.22;1.58;;;;;;;;;;5037605;28;20033;-77
2023/05/20 10:55:52;;;;;;;2.13;1.27;;;;;;;;;;5056449;28;20017;-77
2023/05/20 10:58:20;;;;;;;2.08;1.35;;;;;;;;;;5038974;28;20392;-77
2023/05/20 11:00:47;;;;;;;3.72;1.35;;;;;;;;;;5021298;28;20152;-76
2023/05/20 11:03:13;;;;;;;3.55;1.30;;;;;;;;;;5038350;28;20021;-77
2023/05/20 11:05:39;;;;;;;3.53;1.15;;;;;;;;;;5037701;28;20232;-77
2023/05/20 11:08:08;;;;;;;1.30;1.17;;;;;;;;;;5055029;28;20081;-77
2023/05/20 11:10:34;;;;;;;2.75;1.40;;;;;;;;;;5020221;28;20078;-76
2023/05/20 11:13:01;;;;;;;7.50;1.38;;;;;;;;;;5054917;28;20383;-75
2023/05/20 11:15:26;;;;;;;1.73;1.40;;;;;;;;;;5036644;28;20033;-76
2023/05/20 11:17:56;;;;;;;3.85;1.35;;;;;;;;;;5036389;28;20037;-76
2023/05/20 11:20:23;;;;;;;1.23;1.13;;;;;;;;;;5036488;28;20025;-76
2023/05/20 11:22:55;;;;;;;2.90;1.30;;;;;;;;;;5036267;28;20131;-78
2023/05/20 11:25:24;;;;;;;2.50;1.23;;;;;;;;;;5019894;28;20017;-77
2023/05/20 11:27:50;;;;;;;2.10;1.20;;;;;;;;;;5020490;28;20029;-77
2023/05/20 11:30:17;;;;;;;4.20;1.35;;;;;;;;;;5037000;28;20025;-79
2023/05/20 11:33:03;;;;;;;5.10;1.73;;;;;;;;;;5037744;28;20021;-77
2023/05/20 11:35:31;;;;;;;10.85;2.00;;;;;;;;;;5036744;28;20029;-77
2023/05/20 11:37:56;;;;;;;3.67;1.80;;;;;;;;;;5054944;28;20074;-78
2023/05/20 11:40:25;;;;;;;4.10;1.80;;;;;;;;;;5054573;28;20028;-77
2023/05/20 11:42:59;;;;;;;4.97;1.88;;;;;;;;;;5036678;28;20047;-77
2023/05/20 11:45:26;;;;;;;2.55;1.52;;;;;;;;;;5028928;28;20444;-77
2023/05/20 11:48:02;;;;;;;2.58;1.60;;;;;;;;;;5020128;28;20041;-77
2023/05/20 11:50:32;;;;;;;3.13;1.27;;;;;;;;;;5037275;28;20071;-77
2023/05/20 11:52:59;;;;;;;5.00;1.63;;;;;;;;;;5036432;28;20079;-77
2023/05/20 11:55:25;;;;;;;5.70;1.60;;;;;;;;;;5036624;28;20049;-77
2023/05/20 11:57:51;;;;;;;3.30;1.50;;;;;;;;;;5036463;28;20041;-77
2023/05/20 12:00:16;;;;;;;5.38;1.88;;;;;;;;;;5036213;28;20053;-77
2023/05/20 12:02:42;;;;;;;2.65;1.30;;;;;;;;;;5036254;28;20127;-77
2023/05/20 12:05:08;;;;;;;2.03;1.30;;;;;;;;;;5036357;28;20068;-77
2023/05/20 12:07:33;;;;;;;4.68;1.30;;;;;;;;;;5036490;28;20032;-77
2023/05/20 12:09:59;;;;;;;2.85;1.35;;;;;;;;;;5036984;28;20037;-78
2023/05/20 12:12:24;;;;;;;7.32;1.30;;;;;;;;;;5054521;28;20033;-78
2023/05/20 12:14:50;;;;;;;4.22;1.30;;;;;;;;;;5054421;28;20029;-76
2023/05/20 12:17:15;;;;;;;1.65;1.30;;;;;;;;;;5020199;28;20024;-78
2023/05/20 12:19:41;;;;;;;1.23;1.13;;;;;;;;;;5019889;28;20115;-76
2023/05/20 12:22:07;;;;;;;3.50;1.25;;;;;;;;;;5036635;28;20059;-78
2023/05/20 12:24:32;;;;;;;2.08;1.23;;;;;;;;;;5054181;28;20108;-77
2023/05/20 12:26:57;;;;;;;1.40;1.30;;;;;;;;;;5054333;28;20108;-78
2023/05/20 12:29:23;;;;;;;2.92;1.05;;;;;;;;;;5036303;28;20387;-77
2023/05/20 12:31:48;;;;;;;3.45;1.35;;;;;;;;;;5036953;28;20116;-77
2023/05/20 12:34:13;;;;;;;2.22;1.20;;;;;;;;;;5053846;28;20480;-77
2023/05/20 12:36:39;;;;;;;1.38;1.23;;;;;;;;;;5019570;28;20040;-77
2023/05/20 12:39:05;;;;;;;2.28;1.17;;;;;;;;;;5036046;28;20447;-76
2023/05/20 12:41:30;;;;;;;3.05;1.33;;;;;;;;;;5019428;28;20025;-77
2023/05/20 12:43:55;;;;;;;1.23;1.10;;;;;;;;;;5053503;28;20040;-77
2023/05/20 12:46:21;;;;;;;5.80;1.40;;;;;;;;;;5035968;28;20392;-77
2023/05/20 12:48:47;;;;;;;2.38;1.45;;;;;;;;;;5036139;28;20037;-76
2023/05/20 12:51:12;;;;;;;1.98;1.27;;;;;;;;;;5053583;28;20036;-76
2023/05/20 12:53:37;;;;;;;1.67;1.33;;;;;;;;;;5035859;28;20538;-76
2023/05/20 12:56:03;;;;;;;1.30;1.20;;;;;;;;;;5035360;28;20086;-76
2023/05/20 12:58:29;;;;;;;2.15;1.10;;;;;;;;;;5018725;28;20033;-76
2023/05/20 13:00:54;;;;;;;4.22;1.20;;;;;;;;;;5018508;28;20053;-78
2023/05/20 13:03:19;;;;;;;1.52;1.23;;;;;;;;;;5032975;28;20037;-77
2023/05/20 13:05:45;;;;;;;2.50;1.10;;;;;;;;;;5028725;28;20036;-77
2023/05/20 13:08:11;;;;;;;1.42;1.10;;;;;;;;;;5034811;28;20032;-77
2023/05/20 13:10:37;;;;;;;4.43;1.13;;;;;;;;;;5052671;28;20044;-77
2023/05/20 13:13:02;;;;;;;2.17;1.08;;;;;;;;;;5034857;28;20064;-77
2023/05/20 13:15:28;;;;;;;1.98;1.10;;;;;;;;;;5052324;28;20021;-77
2023/05/20 13:17:53;;;;;;;4.30;1.20;;;;;;;;;;5034341;28;20033;-77
2023/05/20 13:20:18;;;;;;;2.60;1.20;;;;;;;;;;5052368;28;20029;-77
2023/05/20 13:22:44;;;;;;;2.50;1.48;;;;;;;;;;5053161;28;20533;-77
2023/05/20 13:25:09;;;;;;;4.82;1.73;;;;;;;;;;5035496;28;20037;-78
2023/05/20 13:27:35;;;;;;;2.80;1.02;;;;;;;;;;5052979;28;20071;-77
2023/05/20 13:30:00;;;;;;;1.65;1.38;;;;;;;;;;5001467;28;20087;-77
2023/05/20 13:32:26;;;;;;;1.33;1.23;;;;;;;;;;5034798;28;20409;-77
2023/05/20 13:34:51;;;;;;;1.20;1.10;;;;;;;;;;5034840;28;20032;-77
2023/05/20 13:37:17;;;;;;;1.00;0.95;;;;;;;;;;5018572;28;20043;-77
2023/05/20 13:39:42;;;;;;;1.92;1.10;;;;;;;;;;5035002;28;20044;-77
2023/05/20 13:42:08;;;;;;;1.25;1.05;;;;;;;;;;5053222;28;20024;-77
2023/05/20 13:44:33;;;;;;;1.10;1.00;;;;;;;;;;5053064;28;20033;-77
2023/05/20 13:46:59;;;;;;;2.80;1.10;;;;;;;;;;5018529;28;20641;-78
2023/05/20 13:49:24;;;;;;;1.10;1.00;;;;;;;;;;5036094;28;20488;-78
2023/05/20 13:51:50;;;;;;;2.45;1.27;;;;;;;;;;5035598;28;20041;-79
2023/05/20 13:54:15;;;;;;;1.33;1.10;;;;;;;;;;5035061;28;20040;-78
2023/05/20 13:56:41;;;;;;;1.20;1.10;;;;;;;;;;5034923;28;20057;-79
2023/05/20 13:59:07;;;;;;;2.53;1.10;;;;;;;;;;5018460;28;20033;-78
2023/05/20 14:01:32;;;;;;;1.40;1.10;;;;;;;;;;5052745;28;20436;-78
2023/05/20 14:03:58;;;;;;;2.35;1.00;;;;;;;;;;5053508;28;20037;-79
2023/05/20 14:06:25;;;;;;;1.15;1.05;;;;;;;;;;5035435;28;20017;-79
2023/05/20 14:08:53;;;;;;;2.33;1.40;;;;;;;;;;5035607;28;20044;-79
2023/05/20 14:11:19;;;;;;;1.58;1.00;;;;;;;;;;5035124;28;20048;-79
2023/05/20 14:13:45;;;;;;;2.88;1.10;;;;;;;;;;5018610;28;20037;-79
2023/05/20 14:16:10;;;;;;;1.15;1.08;;;;;;;;;;5053136;28;20036;-78
2023/05/20 14:18:35;;;;;;;1.15;1.05;;;;;;;;;;5056734;28;20029;-78
2023/05/20 14:21:01;;;;;;;1.98;1.20;;;;;;;;;;5056452;28;20537;-78
2023/05/20 14:23:26;;;;;;;1.63;1.00;;;;;;;;;;5022244;28;20043;-78
2023/05/20 14:25:52;;;;;;;1.48;1.15;;;;;;;;;;5055896;28;20075;-79
2023/05/20 14:28:17;;;;;;;4.03;1.30;;;;;;;;;;5055410;28;20025;-79
2023/05/20 14:30:42;;;;;;;1.30;1.20;;;;;;;;;;5038590;28;20116;-79
2023/05/20 14:33:08;;;;;;;2.03;1.17;;;;;;;;;;5038472;28;20033;-80
2023/05/20 14:35:33;;;;;;;1.27;1.17;;;;;;;;;;5056169;28;20109;-77
2023/05/20 14:37:59;;;;;;;6.03;1.50;;;;;;;;;;5056580;28;20096;-78